sensor_id;sensor_type;location;lat;lon;timestamp;temperature;humidity
51383;DHT22;37475;43.358;1.248;2023-12-14T00:02:08;7.90;94.30
51383;DHT22;37475;43.358;1.248;2023-12-14T00:04:34;7.90;94.20
51383;DHT22;37475;43.358;1.248;2023-12-14T00:07:00;8.00;94.10
51383;DHT22;37475;43.358;1.248;2023-12-14T00:09:25;8.00;94.00
51383;DHT22;37475;43.358;1.248;2023-12-14T00:11:51;8.10;94.00
51383;DHT22;37475;43.358;1.248;2023-12-14T00:14:17;8.00;94.00
51383;DHT22;37475;43.358;1.248;2023-12-14T00:16:42;8.10;94.10
51383;DHT22;37475;43.358;1.248;2023-12-14T00:19:08;8.10;94.00
51383;DHT22;37475;43.358;1.248;2023-12-14T00:21:34;8.10;94.00
51383;DHT22;37475;43.358;1.248;2023-12-14T00:24:00;8.10;93.80
51383;DHT22;37475;43.358;1.248;2023-12-14T00:26:25;8.10;93.70
51383;DHT22;37475;43.358;1.248;2023-12-14T00:28:51;8.10;93.60
51383;DHT22;37475;43.358;1.248;2023-12-14T00:31:17;8.10;93.50
51383;DHT22;37475;43.358;1.248;2023-12-14T00:33:43;8.10;93.60
51383;DHT22;37475;43.358;1.248;2023-12-14T00:36:10;8.10;93.60
51383;DHT22;37475;43.358;1.248;2023-12-14T00:38:43;8.10;93.70
51383;DHT22;37475;43.358;1.248;2023-12-14T00:41:08;8.10;93.80
51383;DHT22;37475;43.358;1.248;2023-12-14T00:43:35;8.10;93.80
51383;DHT22;37475;43.358;1.248;2023-12-14T00:46:02;8.00;93.70
51383;DHT22;37475;43.358;1.248;2023-12-14T00:48:28;8.10;93.60
51383;DHT22;37475;43.358;1.248;2023-12-14T00:50:54;8.00;93.50
51383;DHT22;37475;43.358;1.248;2023-12-14T00:53:19;8.00;93.60
51383;DHT22;37475;43.358;1.248;2023-12-14T00:55:45;8.00;93.70
51383;DHT22;37475;43.358;1.248;2023-12-14T00:58:11;8.10;93.70
51383;DHT22;37475;43.358;1.248;2023-12-14T01:00:40;8.10;93.50
51383;DHT22;37475;43.358;1.248;2023-12-14T01:03:06;8.20;93.40
51383;DHT22;37475;43.358;1.248;2023-12-14T01:05:32;8.10;93.30
51383;DHT22;37475;43.358;1.248;2023-12-14T01:07:58;8.10;93.10
51383;DHT22;37475;43.358;1.248;2023-12-14T01:10:23;8.20;92.90
51383;DHT22;37475;43.358;1.248;2023-12-14T01:12:49;8.20;92.90
51383;DHT22;37475;43.358;1.248;2023-12-14T01:15:15;8.20;92.60
51383;DHT22;37475;43.358;1.248;2023-12-14T01:17:41;8.20;92.40
51383;DHT22;37475;43.358;1.248;2023-12-14T01:20:07;8.20;92.20
51383;DHT22;37475;43.358;1.248;2023-12-14T01:22:34;8.10;92.20
51383;DHT22;37475;43.358;1.248;2023-12-14T01:24:59;8.10;92.30
51383;DHT22;37475;43.358;1.248;2023-12-14T01:27:25;8.10;92.30
51383;DHT22;37475;43.358;1.248;2023-12-14T01:29:51;8.10;92.00
51383;DHT22;37475;43.358;1.248;2023-12-14T01:32:17;8.10;91.90
51383;DHT22;37475;43.358;1.248;2023-12-14T01:34:43;8.10;92.00
51383;DHT22;37475;43.358;1.248;2023-12-14T01:37:08;8.10;92.10
51383;DHT22;37475;43.358;1.248;2023-12-14T01:39:34;8.10;91.70
51383;DHT22;37475;43.358;1.248;2023-12-14T01:42:00;8.10;91.80
51383;DHT22;37475;43.358;1.248;2023-12-14T01:44:26;8.10;92.00
51383;DHT22;37475;43.358;1.248;2023-12-14T01:46:52;8.00;92.20
51383;DHT22;37475;43.358;1.248;2023-12-14T01:49:17;8.10;92.20
51383;DHT22;37475;43.358;1.248;2023-12-14T01:51:43;8.00;92.20
51383;DHT22;37475;43.358;1.248;2023-12-14T01:54:09;8.00;92.10
51383;DHT22;37475;43.358;1.248;2023-12-14T01:56:35;8.00;91.90
51383;DHT22;37475;43.358;1.248;2023-12-14T01:59:00;8.00;91.90
51383;DHT22;37475;43.358;1.248;2023-12-14T02:01:41;8.00;91.70
51383;DHT22;37475;43.358;1.248;2023-12-14T02:04:09;8.00;91.70
51383;DHT22;37475;43.358;1.248;2023-12-14T02:06:35;8.00;91.50
51383;DHT22;37475;43.358;1.248;2023-12-14T02:09:01;8.00;91.50
51383;DHT22;37475;43.358;1.248;2023-12-14T02:11:27;8.00;91.30
51383;DHT22;37475;43.358;1.248;2023-12-14T02:13:53;8.00;91.20
51383;DHT22;37475;43.358;1.248;2023-12-14T02:16:18;8.00;91.10
51383;DHT22;37475;43.358;1.248;2023-12-14T02:18:45;8.00;91.10
51383;DHT22;37475;43.358;1.248;2023-12-14T02:21:11;7.90;91.10
51383;DHT22;37475;43.358;1.248;2023-12-14T02:23:46;8.00;91.00
51383;DHT22;37475;43.358;1.248;2023-12-14T02:26:13;8.00;91.00
51383;DHT22;37475;43.358;1.248;2023-12-14T02:28:39;8.00;91.20
51383;DHT22;37475;43.358;1.248;2023-12-14T02:31:05;8.00;91.40
51383;DHT22;37475;43.358;1.248;2023-12-14T02:33:30;8.00;91.00
51383;DHT22;37475;43.358;1.248;2023-12-14T02:35:57;8.00;91.10
51383;DHT22;37475;43.358;1.248;2023-12-14T02:38:23;8.10;90.30
51383;DHT22;37475;43.358;1.248;2023-12-14T02:40:49;8.10;90.10
51383;DHT22;37475;43.358;1.248;2023-12-14T02:43:18;8.00;90.70
51383;DHT22;37475;43.358;1.248;2023-12-14T02:45:45;8.00;90.80
51383;DHT22;37475;43.358;1.248;2023-12-14T02:48:11;8.00;90.40
51383;DHT22;37475;43.358;1.248;2023-12-14T02:50:37;8.00;90.40
51383;DHT22;37475;43.358;1.248;2023-12-14T02:53:03;8.00;90.00
51383;DHT22;37475;43.358;1.248;2023-12-14T02:55:29;8.00;90.00
51383;DHT22;37475;43.358;1.248;2023-12-14T02:57:55;8.00;89.90
51383;DHT22;37475;43.358;1.248;2023-12-14T03:00:21;8.00;89.60
51383;DHT22;37475;43.358;1.248;2023-12-14T03:02:47;7.90;89.90
51383;DHT22;37475;43.358;1.248;2023-12-14T03:05:13;7.90;89.80
51383;DHT22;37475;43.358;1.248;2023-12-14T03:07:39;7.90;89.80
51383;DHT22;37475;43.358;1.248;2023-12-14T03:10:05;7.90;90.10
51383;DHT22;37475;43.358;1.248;2023-12-14T03:12:31;7.80;90.10
51383;DHT22;37475;43.358;1.248;2023-12-14T03:14:57;7.80;90.30
51383;DHT22;37475;43.358;1.248;2023-12-14T03:17:23;7.80;90.50
51383;DHT22;37475;43.358;1.248;2023-12-14T03:19:49;7.70;90.60
51383;DHT22;37475;43.358;1.248;2023-12-14T03:22:14;7.70;90.40
51383;DHT22;37475;43.358;1.248;2023-12-14T03:24:40;7.80;90.40
51383;DHT22;37475;43.358;1.248;2023-12-14T03:27:06;7.70;90.10
51383;DHT22;37475;43.358;1.248;2023-12-14T03:29:32;7.80;90.00
51383;DHT22;37475;43.358;1.248;2023-12-14T03:31:58;7.70;89.90
51383;DHT22;37475;43.358;1.248;2023-12-14T03:34:24;7.80;90.00
51383;DHT22;37475;43.358;1.248;2023-12-14T03:36:50;7.80;90.00
51383;DHT22;37475;43.358;1.248;2023-12-14T03:39:16;7.80;89.60
51383;DHT22;37475;43.358;1.248;2023-12-14T03:41:42;7.80;89.20
51383;DHT22;37475;43.358;1.248;2023-12-14T03:44:08;7.80;89.30
51383;DHT22;37475;43.358;1.248;2023-12-14T03:46:34;7.80;89.50
51383;DHT22;37475;43.358;1.248;2023-12-14T03:49:01;7.80;89.70
51383;DHT22;37475;43.358;1.248;2023-12-14T03:51:27;7.80;89.70
51383;DHT22;37475;43.358;1.248;2023-12-14T03:53:53;7.80;90.20
51383;DHT22;37475;43.358;1.248;2023-12-14T03:56:19;7.80;90.40
51383;DHT22;37475;43.358;1.248;2023-12-14T03:58:45;7.70;90.40
51383;DHT22;37475;43.358;1.248;2023-12-14T04:01:18;7.70;90.40
51383;DHT22;37475;43.358;1.248;2023-12-14T04:03:45;7.70;90.60
51383;DHT22;37475;43.358;1.248;2023-12-14T04:06:12;7.70;90.40
51383;DHT22;37475;43.358;1.248;2023-12-14T04:08:38;7.70;90.40
51383;DHT22;37475;43.358;1.248;2023-12-14T04:11:04;7.70;90.50
51383;DHT22;37475;43.358;1.248;2023-12-14T04:13:30;7.70;90.40
51383;DHT22;37475;43.358;1.248;2023-12-14T04:15:56;7.60;90.40
51383;DHT22;37475;43.358;1.248;2023-12-14T04:18:23;7.60;90.10
51383;DHT22;37475;43.358;1.248;2023-12-14T04:20:49;7.60;89.80
51383;DHT22;37475;43.358;1.248;2023-12-14T04:23:14;7.70;89.80
51383;DHT22;37475;43.358;1.248;2023-12-14T04:25:40;7.60;89.80
51383;DHT22;37475;43.358;1.248;2023-12-14T04:28:06;7.60;90.00
51383;DHT22;37475;43.358;1.248;2023-12-14T04:30:32;7.60;90.00
51383;DHT22;37475;43.358;1.248;2023-12-14T04:32:57;7.60;90.30
51383;DHT22;37475;43.358;1.248;2023-12-14T04:35:23;7.50;90.40
51383;DHT22;37475;43.358;1.248;2023-12-14T04:37:49;7.60;89.90
51383;DHT22;37475;43.358;1.248;2023-12-14T04:40:15;7.60;90.20
51383;DHT22;37475;43.358;1.248;2023-12-14T04:42:41;7.60;90.20
51383;DHT22;37475;43.358;1.248;2023-12-14T04:45:07;7.50;90.30
51383;DHT22;37475;43.358;1.248;2023-12-14T04:47:36;7.50;90.00
51383;DHT22;37475;43.358;1.248;2023-12-14T04:50:03;7.50;90.00
51383;DHT22;37475;43.358;1.248;2023-12-14T04:52:29;7.40;90.20
51383;DHT22;37475;43.358;1.248;2023-12-14T04:54:54;7.40;90.10
51383;DHT22;37475;43.358;1.248;2023-12-14T04:57:20;7.40;90.10
51383;DHT22;37475;43.358;1.248;2023-12-14T04:59:46;7.40;89.80
51383;DHT22;37475;43.358;1.248;2023-12-14T05:02:12;7.40;89.70
51383;DHT22;37475;43.358;1.248;2023-12-14T05:04:38;7.40;89.60
51383;DHT22;37475;43.358;1.248;2023-12-14T05:07:03;7.40;89.50
51383;DHT22;37475;43.358;1.248;2023-12-14T05:09:29;7.30;89.50
51383;DHT22;37475;43.358;1.248;2023-12-14T05:11:55;7.30;89.50
51383;DHT22;37475;43.358;1.248;2023-12-14T05:14:21;7.40;88.90
51383;DHT22;37475;43.358;1.248;2023-12-14T05:16:47;7.40;89.00
51383;DHT22;37475;43.358;1.248;2023-12-14T05:19:13;7.40;89.00
51383;DHT22;37475;43.358;1.248;2023-12-14T05:21:39;7.30;89.00
51383;DHT22;37475;43.358;1.248;2023-12-14T05:24:05;7.30;89.00
51383;DHT22;37475;43.358;1.248;2023-12-14T05:26:31;7.30;88.70
51383;DHT22;37475;43.358;1.248;2023-12-14T05:28:56;7.30;88.00
51383;DHT22;37475;43.358;1.248;2023-12-14T05:31:22;7.30;88.20
51383;DHT22;37475;43.358;1.248;2023-12-14T05:33:48;7.30;88.50
51383;DHT22;37475;43.358;1.248;2023-12-14T05:36:14;7.30;88.40
51383;DHT22;37475;43.358;1.248;2023-12-14T05:38:40;7.30;88.80
51383;DHT22;37475;43.358;1.248;2023-12-14T05:41:06;7.30;88.90
51383;DHT22;37475;43.358;1.248;2023-12-14T05:43:32;7.20;89.30
51383;DHT22;37475;43.358;1.248;2023-12-14T05:45:58;7.20;89.30
51383;DHT22;37475;43.358;1.248;2023-12-14T05:48:24;7.20;89.50
51383;DHT22;37475;43.358;1.248;2023-12-14T05:50:52;7.20;89.50
51383;DHT22;37475;43.358;1.248;2023-12-14T05:53:18;7.20;89.60
51383;DHT22;37475;43.358;1.248;2023-12-14T05:55:44;7.20;89.60
51383;DHT22;37475;43.358;1.248;2023-12-14T05:58:10;7.20;89.70
51383;DHT22;37475;43.358;1.248;2023-12-14T06:00:36;7.20;89.40
51383;DHT22;37475;43.358;1.248;2023-12-14T06:03:02;7.20;89.50
51383;DHT22;37475;43.358;1.248;2023-12-14T06:05:28;7.20;89.20
51383;DHT22;37475;43.358;1.248;2023-12-14T06:07:54;7.20;89.20
51383;DHT22;37475;43.358;1.248;2023-12-14T06:10:20;7.20;89.20
51383;DHT22;37475;43.358;1.248;2023-12-14T06:12:47;7.20;88.90
51383;DHT22;37475;43.358;1.248;2023-12-14T06:15:13;7.20;89.00
51383;DHT22;37475;43.358;1.248;2023-12-14T06:17:39;7.10;88.60
51383;DHT22;37475;43.358;1.248;2023-12-14T06:20:07;7.20;88.90
51383;DHT22;37475;43.358;1.248;2023-12-14T06:22:36;7.20;88.70
51383;DHT22;37475;43.358;1.248;2023-12-14T06:25:02;7.10;88.90
51383;DHT22;37475;43.358;1.248;2023-12-14T06:27:29;7.10;88.80
51383;DHT22;37475;43.358;1.248;2023-12-14T06:29:55;7.10;88.70
51383;DHT22;37475;43.358;1.248;2023-12-14T06:32:20;7.10;88.70
51383;DHT22;37475;43.358;1.248;2023-12-14T06:34:46;7.20;88.70
51383;DHT22;37475;43.358;1.248;2023-12-14T06:37:12;7.10;88.90
51383;DHT22;37475;43.358;1.248;2023-12-14T06:39:40;7.10;88.90
51383;DHT22;37475;43.358;1.248;2023-12-14T06:42:07;7.10;88.70
51383;DHT22;37475;43.358;1.248;2023-12-14T06:44:33;7.20;88.80
51383;DHT22;37475;43.358;1.248;2023-12-14T06:46:58;7.10;88.70
51383;DHT22;37475;43.358;1.248;2023-12-14T06:49:25;7.10;88.70
51383;DHT22;37475;43.358;1.248;2023-12-14T06:51:51;7.10;88.60
51383;DHT22;37475;43.358;1.248;2023-12-14T06:54:17;7.10;88.70
51383;DHT22;37475;43.358;1.248;2023-12-14T06:56:43;7.10;88.50
51383;DHT22;37475;43.358;1.248;2023-12-14T06:59:09;7.10;88.60
51383;DHT22;37475;43.358;1.248;2023-12-14T07:01:34;7.10;88.30
51383;DHT22;37475;43.358;1.248;2023-12-14T07:04:00;7.20;88.30
51383;DHT22;37475;43.358;1.248;2023-12-14T07:06:28;7.10;88.40
51383;DHT22;37475;43.358;1.248;2023-12-14T07:08:54;7.10;88.10
51383;DHT22;37475;43.358;1.248;2023-12-14T07:11:19;7.10;87.80
51383;DHT22;37475;43.358;1.248;2023-12-14T07:13:45;7.10;87.60
51383;DHT22;37475;43.358;1.248;2023-12-14T07:16:12;7.10;88.00
51383;DHT22;37475;43.358;1.248;2023-12-14T07:18:39;7.10;87.80
51383;DHT22;37475;43.358;1.248;2023-12-14T07:21:07;7.20;87.90
51383;DHT22;37475;43.358;1.248;2023-12-14T07:23:34;7.10;87.90
51383;DHT22;37475;43.358;1.248;2023-12-14T07:26:00;7.10;88.20
51383;DHT22;37475;43.358;1.248;2023-12-14T07:28:26;7.10;87.90
51383;DHT22;37475;43.358;1.248;2023-12-14T07:30:52;7.10;87.50
51383;DHT22;37475;43.358;1.248;2023-12-14T07:33:18;7.10;87.30
51383;DHT22;37475;43.358;1.248;2023-12-14T07:35:44;7.10;87.30
51383;DHT22;37475;43.358;1.248;2023-12-14T07:38:10;7.20;86.90
51383;DHT22;37475;43.358;1.248;2023-12-14T07:40:36;7.20;87.40
51383;DHT22;37475;43.358;1.248;2023-12-14T07:43:04;7.10;87.50
51383;DHT22;37475;43.358;1.248;2023-12-14T07:45:30;7.10;87.50
51383;DHT22;37475;43.358;1.248;2023-12-14T07:47:55;7.20;87.40
51383;DHT22;37475;43.358;1.248;2023-12-14T07:50:21;7.10;87.40
51383;DHT22;37475;43.358;1.248;2023-12-14T07:52:47;7.10;87.20
51383;DHT22;37475;43.358;1.248;2023-12-14T07:55:13;7.10;87.10
51383;DHT22;37475;43.358;1.248;2023-12-14T07:57:39;7.10;86.70
51383;DHT22;37475;43.358;1.248;2023-12-14T08:00:06;7.20;87.20
51383;DHT22;37475;43.358;1.248;2023-12-14T08:02:34;7.20;86.90
51383;DHT22;37475;43.358;1.248;2023-12-14T08:05:00;7.20;87.20
51383;DHT22;37475;43.358;1.248;2023-12-14T08:07:26;7.10;87.30
51383;DHT22;37475;43.358;1.248;2023-12-14T08:09:55;7.10;86.70
51383;DHT22;37475;43.358;1.248;2023-12-14T08:12:22;7.20;87.20
51383;DHT22;37475;43.358;1.248;2023-12-14T08:14:48;7.10;87.20
51383;DHT22;37475;43.358;1.248;2023-12-14T08:17:14;7.20;86.90
51383;DHT22;37475;43.358;1.248;2023-12-14T08:19:40;7.20;87.00
51383;DHT22;37475;43.358;1.248;2023-12-14T08:22:06;7.20;87.10
51383;DHT22;37475;43.358;1.248;2023-12-14T08:24:33;7.20;87.00
51383;DHT22;37475;43.358;1.248;2023-12-14T08:26:59;7.20;87.00
51383;DHT22;37475;43.358;1.248;2023-12-14T08:29:24;7.20;86.70
51383;DHT22;37475;43.358;1.248;2023-12-14T08:31:50;7.20;86.50
51383;DHT22;37475;43.358;1.248;2023-12-14T08:34:16;7.20;86.70
51383;DHT22;37475;43.358;1.248;2023-12-14T08:36:42;7.20;86.60
51383;DHT22;37475;43.358;1.248;2023-12-14T08:39:07;7.30;86.60
51383;DHT22;37475;43.358;1.248;2023-12-14T08:41:33;7.30;86.40
51383;DHT22;37475;43.358;1.248;2023-12-14T08:43:59;7.30;86.10
51383;DHT22;37475;43.358;1.248;2023-12-14T08:46:25;7.30;86.30
51383;DHT22;37475;43.358;1.248;2023-12-14T08:48:50;7.30;86.30
51383;DHT22;37475;43.358;1.248;2023-12-14T08:51:17;7.30;86.30
51383;DHT22;37475;43.358;1.248;2023-12-14T08:53:44;7.30;86.40
51383;DHT22;37475;43.358;1.248;2023-12-14T08:56:10;7.30;86.40
51383;DHT22;37475;43.358;1.248;2023-12-14T08:58:35;7.30;86.50
51383;DHT22;37475;43.358;1.248;2023-12-14T09:01:01;7.30;86.50
51383;DHT22;37475;43.358;1.248;2023-12-14T09:03:27;7.40;86.50
51383;DHT22;37475;43.358;1.248;2023-12-14T09:05:53;7.40;86.60
51383;DHT22;37475;43.358;1.248;2023-12-14T09:08:18;7.40;86.50
51383;DHT22;37475;43.358;1.248;2023-12-14T09:10:44;7.40;86.30
51383;DHT22;37475;43.358;1.248;2023-12-14T09:13:10;7.40;86.40
51383;DHT22;37475;43.358;1.248;2023-12-14T09:15:36;7.40;86.00
51383;DHT22;37475;43.358;1.248;2023-12-14T09:18:02;7.40;86.10
51383;DHT22;37475;43.358;1.248;2023-12-14T09:20:28;7.40;86.20
51383;DHT22;37475;43.358;1.248;2023-12-14T09:22:54;7.50;85.80
51383;DHT22;37475;43.358;1.248;2023-12-14T09:25:20;7.50;85.60
51383;DHT22;37475;43.358;1.248;2023-12-14T09:27:45;7.50;86.40
51383;DHT22;37475;43.358;1.248;2023-12-14T09:30:12;7.50;85.90
51383;DHT22;37475;43.358;1.248;2023-12-14T09:32:38;7.50;86.10
51383;DHT22;37475;43.358;1.248;2023-12-14T09:35:05;7.60;86.00
51383;DHT22;37475;43.358;1.248;2023-12-14T09:37:32;7.60;86.00
51383;DHT22;37475;43.358;1.248;2023-12-14T09:39:57;7.60;85.40
51383;DHT22;37475;43.358;1.248;2023-12-14T09:42:23;7.60;85.50
51383;DHT22;37475;43.358;1.248;2023-12-14T09:44:50;7.70;84.90
51383;DHT22;37475;43.358;1.248;2023-12-14T09:47:16;7.70;84.60
51383;DHT22;37475;43.358;1.248;2023-12-14T09:49:42;7.70;85.10
51383;DHT22;37475;43.358;1.248;2023-12-14T09:52:10;7.80;84.90
51383;DHT22;37475;43.358;1.248;2023-12-14T09:54:35;7.80;84.70
51383;DHT22;37475;43.358;1.248;2023-12-14T09:57:01;7.90;84.60
51383;DHT22;37475;43.358;1.248;2023-12-14T09:59:27;7.90;84.00
51383;DHT22;37475;43.358;1.248;2023-12-14T10:01:53;8.10;84.50
51383;DHT22;37475;43.358;1.248;2023-12-14T10:04:19;8.10;84.00
51383;DHT22;37475;43.358;1.248;2023-12-14T10:06:47;8.30;84.10
51383;DHT22;37475;43.358;1.248;2023-12-14T10:09:13;8.30;83.80
51383;DHT22;37475;43.358;1.248;2023-12-14T10:11:44;8.30;83.40
51383;DHT22;37475;43.358;1.248;2023-12-14T10:14:24;8.40;83.40
51383;DHT22;37475;43.358;1.248;2023-12-14T10:16:52;8.60;82.90
51383;DHT22;37475;43.358;1.248;2023-12-14T10:19:19;8.60;82.40
51383;DHT22;37475;43.358;1.248;2023-12-14T10:21:49;8.70;81.30
51383;DHT22;37475;43.358;1.248;2023-12-14T10:24:16;8.80;81.30
51383;DHT22;37475;43.358;1.248;2023-12-14T10:26:44;9.00;80.60
51383;DHT22;37475;43.358;1.248;2023-12-14T10:29:10;9.10;80.60
51383;DHT22;37475;43.358;1.248;2023-12-14T10:31:37;9.90;80.90
51383;DHT22;37475;43.358;1.248;2023-12-14T10:34:06;9.60;79.20
51383;DHT22;37475;43.358;1.248;2023-12-14T10:36:32;9.30;79.20
51383;DHT22;37475;43.358;1.248;2023-12-14T10:39:00;9.60;80.50
51383;DHT22;37475;43.358;1.248;2023-12-14T10:41:26;9.20;79.20
51383;DHT22;37475;43.358;1.248;2023-12-14T10:43:56;9.10;79.90
51383;DHT22;37475;43.358;1.248;2023-12-14T10:46:23;8.90;79.90
51383;DHT22;37475;43.358;1.248;2023-12-14T10:48:50;9.40;78.70
51383;DHT22;37475;43.358;1.248;2023-12-14T10:51:20;9.60;77.00
51383;DHT22;37475;43.358;1.248;2023-12-14T10:53:49;10.10;77.40
51383;DHT22;37475;43.358;1.248;2023-12-14T10:56:17;9.80;76.80
51383;DHT22;37475;43.358;1.248;2023-12-14T10:58:55;9.80;76.50
51383;DHT22;37475;43.358;1.248;2023-12-14T11:01:23;9.30;77.50
51383;DHT22;37475;43.358;1.248;2023-12-14T11:03:53;9.20;78.80
51383;DHT22;37475;43.358;1.248;2023-12-14T11:06:21;9.00;77.30
51383;DHT22;37475;43.358;1.248;2023-12-14T11:08:52;9.00;77.30
51383;DHT22;37475;43.358;1.248;2023-12-14T11:11:20;8.90;76.70
51383;DHT22;37475;43.358;1.248;2023-12-14T11:13:55;9.60;75.90
51383;DHT22;37475;43.358;1.248;2023-12-14T11:16:22;10.00;74.80
51383;DHT22;37475;43.358;1.248;2023-12-14T11:24:34;10.30;71.10
51383;DHT22;37475;43.358;1.248;2023-12-14T11:27:05;10.30;70.70
51383;DHT22;37475;43.358;1.248;2023-12-14T11:29:31;9.90;68.00
51383;DHT22;37475;43.358;1.248;2023-12-14T11:31:58;9.70;68.70
51383;DHT22;37475;43.358;1.248;2023-12-14T11:34:27;10.10;69.20
51383;DHT22;37475;43.358;1.248;2023-12-14T11:36:54;10.30;69.60
51383;DHT22;37475;43.358;1.248;2023-12-14T11:39:20;10.80;68.30
51383;DHT22;37475;43.358;1.248;2023-12-14T11:42:17;10.60;68.50
51383;DHT22;37475;43.358;1.248;2023-12-14T11:44:43;10.20;69.00
51383;DHT22;37475;43.358;1.248;2023-12-14T11:47:09;9.80;69.20
51383;DHT22;37475;43.358;1.248;2023-12-14T11:49:35;9.70;71.60
51383;DHT22;37475;43.358;1.248;2023-12-14T11:52:02;9.60;68.90
51383;DHT22;37475;43.358;1.248;2023-12-14T11:54:31;9.60;69.40
51383;DHT22;37475;43.358;1.248;2023-12-14T11:56:57;9.50;69.00
51383;DHT22;37475;43.358;1.248;2023-12-14T11:59:23;9.80;68.90
51383;DHT22;37475;43.358;1.248;2023-12-14T12:01:59;10.20;69.30
51383;DHT22;37475;43.358;1.248;2023-12-14T12:04:27;10.80;68.00
51383;DHT22;37475;43.358;1.248;2023-12-14T12:07:03;11.20;64.40
51383;DHT22;37475;43.358;1.248;2023-12-14T12:09:40;11.20;63.10
51383;DHT22;37475;43.358;1.248;2023-12-14T12:12:12;11.40;63.80
51383;DHT22;37475;43.358;1.248;2023-12-14T12:14:39;10.60;67.80
51383;DHT22;37475;43.358;1.248;2023-12-14T12:17:05;11.30;66.70
51383;DHT22;37475;43.358;1.248;2023-12-14T12:19:36;11.30;67.30
51383;DHT22;37475;43.358;1.248;2023-12-14T12:22:03;10.90;65.80
51383;DHT22;37475;43.358;1.248;2023-12-14T12:24:30;10.90;68.40
51383;DHT22;37475;43.358;1.248;2023-12-14T12:26:56;10.70;64.80
51383;DHT22;37475;43.358;1.248;2023-12-14T12:29:22;10.90;64.90
51383;DHT22;37475;43.358;1.248;2023-12-14T12:31:48;10.50;66.10
51383;DHT22;37475;43.358;1.248;2023-12-14T12:34:14;10.30;66.90
51383;DHT22;37475;43.358;1.248;2023-12-14T12:36:40;9.80;65.70
51383;DHT22;37475;43.358;1.248;2023-12-14T12:39:07;9.70;67.40
51383;DHT22;37475;43.358;1.248;2023-12-14T12:41:33;9.60;66.70
51383;DHT22;37475;43.358;1.248;2023-12-14T12:43:59;9.80;67.50
51383;DHT22;37475;43.358;1.248;2023-12-14T12:46:32;10.20;65.60
51383;DHT22;37475;43.358;1.248;2023-12-14T12:49:04;9.80;65.80
51383;DHT22;37475;43.358;1.248;2023-12-14T12:51:31;10.10;65.20
51383;DHT22;37475;43.358;1.248;2023-12-14T12:53:58;10.60;66.00
51383;DHT22;37475;43.358;1.248;2023-12-14T12:56:26;10.10;65.70
51383;DHT22;37475;43.358;1.248;2023-12-14T12:58:53;9.90;66.20
51383;DHT22;37475;43.358;1.248;2023-12-14T13:01:22;10.50;65.00
51383;DHT22;37475;43.358;1.248;2023-12-14T13:03:53;10.40;66.20
51383;DHT22;37475;43.358;1.248;2023-12-14T13:06:21;10.10;65.70
51383;DHT22;37475;43.358;1.248;2023-12-14T13:08:47;10.00;66.50
51383;DHT22;37475;43.358;1.248;2023-12-14T13:11:13;10.70;64.20
51383;DHT22;37475;43.358;1.248;2023-12-14T13:13:40;10.90;63.60
51383;DHT22;37475;43.358;1.248;2023-12-14T13:16:06;10.30;63.50
51383;DHT22;37475;43.358;1.248;2023-12-14T13:18:32;10.30;63.70
51383;DHT22;37475;43.358;1.248;2023-12-14T13:20:58;10.40;64.40
51383;DHT22;37475;43.358;1.248;2023-12-14T13:23:23;11.30;62.50
51383;DHT22;37475;43.358;1.248;2023-12-14T13:25:49;11.60;62.10
51383;DHT22;37475;43.358;1.248;2023-12-14T13:28:15;12.10;59.80
51383;DHT22;37475;43.358;1.248;2023-12-14T13:30:41;12.90;58.80
51383;DHT22;37475;43.358;1.248;2023-12-14T13:33:07;12.00;55.80
51383;DHT22;37475;43.358;1.248;2023-12-14T13:35:36;12.10;55.70
51383;DHT22;37475;43.358;1.248;2023-12-14T13:38:02;11.90;57.10
51383;DHT22;37475;43.358;1.248;2023-12-14T13:40:28;11.50;59.10
51383;DHT22;37475;43.358;1.248;2023-12-14T13:42:53;10.90;60.10
51383;DHT22;37475;43.358;1.248;2023-12-14T13:45:19;11.60;60.10
51383;DHT22;37475;43.358;1.248;2023-12-14T13:47:45;12.00;59.90
51383;DHT22;37475;43.358;1.248;2023-12-14T13:50:11;12.20;59.50
51383;DHT22;37475;43.358;1.248;2023-12-14T13:52:37;11.50;60.20
51383;DHT22;37475;43.358;1.248;2023-12-14T13:55:03;11.20;60.90
51383;DHT22;37475;43.358;1.248;2023-12-14T13:57:29;11.60;58.90
51383;DHT22;37475;43.358;1.248;2023-12-14T13:59:55;10.90;58.30
51383;DHT22;37475;43.358;1.248;2023-12-14T14:02:21;10.60;61.60
51383;DHT22;37475;43.358;1.248;2023-12-14T14:04:48;11.00;61.20
51383;DHT22;37475;43.358;1.248;2023-12-14T14:07:14;11.40;60.70
51383;DHT22;37475;43.358;1.248;2023-12-14T14:09:40;11.60;60.10
51383;DHT22;37475;43.358;1.248;2023-12-14T14:12:06;11.10;58.10
51383;DHT22;37475;43.358;1.248;2023-12-14T14:14:32;10.60;59.20
51383;DHT22;37475;43.358;1.248;2023-12-14T14:16:58;10.70;59.00
51383;DHT22;37475;43.358;1.248;2023-12-14T14:19:24;10.60;60.80
51383;DHT22;37475;43.358;1.248;2023-12-14T14:21:50;10.70;61.20
51383;DHT22;37475;43.358;1.248;2023-12-14T14:24:15;11.00;60.50
51383;DHT22;37475;43.358;1.248;2023-12-14T14:26:41;10.60;61.40
51383;DHT22;37475;43.358;1.248;2023-12-14T14:29:07;10.50;63.60
51383;DHT22;37475;43.358;1.248;2023-12-14T14:31:36;10.90;63.40
51383;DHT22;37475;43.358;1.248;2023-12-14T14:34:02;11.30;61.20
51383;DHT22;37475;43.358;1.248;2023-12-14T14:36:28;10.90;59.80
51383;DHT22;37475;43.358;1.248;2023-12-14T14:38:54;11.30;61.20
51383;DHT22;37475;43.358;1.248;2023-12-14T14:41:22;11.60;59.40
51383;DHT22;37475;43.358;1.248;2023-12-14T14:43:48;11.30;59.20
51383;DHT22;37475;43.358;1.248;2023-12-14T14:46:14;11.10;60.30
51383;DHT22;37475;43.358;1.248;2023-12-14T14:48:39;11.40;60.60
51383;DHT22;37475;43.358;1.248;2023-12-14T14:51:05;11.10;61.20
51383;DHT22;37475;43.358;1.248;2023-12-14T14:53:31;11.00;61.20
51383;DHT22;37475;43.358;1.248;2023-12-14T14:55:57;11.20;62.30
51383;DHT22;37475;43.358;1.248;2023-12-14T14:58:23;11.30;59.50
51383;DHT22;37475;43.358;1.248;2023-12-14T15:00:49;11.30;59.00
51383;DHT22;37475;43.358;1.248;2023-12-14T15:03:14;11.40;59.00
51383;DHT22;37475;43.358;1.248;2023-12-14T15:05:41;11.10;59.30
51383;DHT22;37475;43.358;1.248;2023-12-14T15:08:06;11.00;59.20
51383;DHT22;37475;43.358;1.248;2023-12-14T15:10:33;10.70;61.10
51383;DHT22;37475;43.358;1.248;2023-12-14T15:12:59;10.40;62.20
51383;DHT22;37475;43.358;1.248;2023-12-14T15:15:25;10.20;63.00
51383;DHT22;37475;43.358;1.248;2023-12-14T15:17:50;10.00;63.20
51383;DHT22;37475;43.358;1.248;2023-12-14T15:20:16;9.90;63.40
51383;DHT22;37475;43.358;1.248;2023-12-14T15:22:42;9.90;64.20
51383;DHT22;37475;43.358;1.248;2023-12-14T15:25:08;9.90;65.10
51383;DHT22;37475;43.358;1.248;2023-12-14T15:27:34;9.80;65.60
51383;DHT22;37475;43.358;1.248;2023-12-14T15:30:00;9.70;66.50
51383;DHT22;37475;43.358;1.248;2023-12-14T15:32:26;9.60;66.80
51383;DHT22;37475;43.358;1.248;2023-12-14T15:34:51;9.60;66.00
51383;DHT22;37475;43.358;1.248;2023-12-14T15:37:17;9.60;65.60
51383;DHT22;37475;43.358;1.248;2023-12-14T15:39:43;9.60;66.10
51383;DHT22;37475;43.358;1.248;2023-12-14T15:42:17;9.60;66.90
51383;DHT22;37475;43.358;1.248;2023-12-14T15:44:43;9.60;66.70